sensor_id;sensor_type;location;lat;lon;timestamp;pressure;altitude;pressure_sealevel;temperature;humidity
45467;BME280;31212;49.734;8.490;2023-01-08T00:02:26;99800.47;;;7.50;86.42
45467;BME280;31212;49.734;8.490;2023-01-08T00:04:52;99809.09;;;7.57;86.86
45467;BME280;31212;49.734;8.490;2023-01-08T00:07:18;99791.91;;;7.57;87.18
45467;BME280;31212;49.734;8.490;2023-01-08T00:09:46;99780.72;;;7.60;86.36
45467;BME280;31212;49.734;8.490;2023-01-08T00:12:14;99769.50;;;7.55;85.94
45467;BME280;31212;49.734;8.490;2023-01-08T00:14:41;99752.31;;;7.62;85.22
45467;BME280;31212;49.734;8.490;2023-01-08T00:17:07;99725.59;;;7.60;84.79
45467;BME280;31212;49.734;8.490;2023-01-08T00:19:34;99704.13;;;7.65;84.45
45467;BME280;31212;49.734;8.490;2023-01-08T00:22:00;99698.06;;;7.60;84.36
45467;BME280;31212;49.734;8.490;2023-01-08T00:24:27;99696.28;;;7.48;84.91
45467;BME280;31212;49.734;8.490;2023-01-08T00:26:55;99705.75;;;7.45;84.67
45467;BME280;31212;49.734;8.490;2023-01-08T00:29:21;99706.63;;;7.48;84.92
45467;BME280;31212;49.734;8.490;2023-01-08T00:31:48;99700.56;;;7.41;85.37
45467;BME280;31212;49.734;8.490;2023-01-08T00:34:14;99707.47;;;7.43;85.58
45467;BME280;31212;49.734;8.490;2023-01-08T00:36:41;99718.66;;;7.40;85.43
45467;BME280;31212;49.734;8.490;2023-01-08T00:39:07;99718.59;;;7.31;85.73
45467;BME280;31212;49.734;8.490;2023-01-08T00:41:34;99729.78;;;7.28;86.21
45467;BME280;31212;49.734;8.490;2023-01-08T00:44:01;99731.50;;;7.26;86.35
45467;BME280;31212;49.734;8.490;2023-01-08T00:46:28;99740.09;;;7.25;86.06
45467;BME280;31212;49.734;8.490;2023-01-08T00:48:54;99728.91;;;7.26;86.93
45467;BME280;31212;49.734;8.490;2023-01-08T00:51:21;99738.41;;;7.30;86.29
45467;BME280;31212;49.734;8.490;2023-01-08T00:53:47;99733.25;;;7.32;86.59
45467;BME280;31212;49.734;8.490;2023-01-08T00:56:14;99728.09;;;7.35;86.45
45467;BME280;31212;49.734;8.490;2023-01-08T00:58:40;99721.25;;;7.45;86.42
45467;BME280;31212;49.734;8.490;2023-01-08T01:01:13;99712.63;;;7.46;86.64
45467;BME280;31212;49.734;8.490;2023-01-08T01:03:40;99717.78;;;7.41;86.36
45467;BME280;31212;49.734;8.490;2023-01-08T01:06:07;99712.66;;;7.49;86.40
45467;BME280;31212;49.734;8.490;2023-01-08T01:08:34;99719.53;;;7.50;86.62
45467;BME280;31212;49.734;8.490;2023-01-08T01:11:05;99716.13;;;7.49;86.18
45467;BME280;31212;49.734;8.490;2023-01-08T01:13:32;99714.41;;;7.56;86.44
45467;BME280;31212;49.734;8.490;2023-01-08T01:15:59;99723.00;;;7.53;86.38
45467;BME280;31212;49.734;8.490;2023-01-08T01:18:28;99724.72;;;7.50;86.58
45467;BME280;31212;49.734;8.490;2023-01-08T01:20:56;99722.13;;;7.53;86.39
45467;BME280;31212;49.734;8.490;2023-01-08T01:23:22;99710.94;;;7.54;85.97
45467;BME280;31212;49.734;8.490;2023-01-08T01:25:49;99713.53;;;7.55;86.30
45467;BME280;31212;49.734;8.490;2023-01-08T01:28:15;99704.03;;;7.50;85.73
45467;BME280;31212;49.734;8.490;2023-01-08T01:30:42;99717.81;;;7.43;85.78
45467;BME280;31212;49.734;8.490;2023-01-08T01:33:08;99721.22;;;7.41;86.53
45467;BME280;31212;49.734;8.490;2023-01-08T01:35:36;99743.63;;;7.43;86.20
45467;BME280;31212;49.734;8.490;2023-01-08T01:38:03;99771.13;;;7.34;87.31
45467;BME280;31212;49.734;8.490;2023-01-08T01:40:29;99792.63;;;7.32;87.86
45467;BME280;31212;49.734;8.490;2023-01-08T01:42:56;99803.69;;;7.15;88.50
45467;BME280;31212;49.734;8.490;2023-01-08T01:45:24;99831.16;;;7.07;89.99
45467;BME280;31212;49.734;8.490;2023-01-08T01:47:54;99840.53;;;6.96;91.07
45467;BME280;31212;49.734;8.490;2023-01-08T01:50:27;99849.09;;;6.92;92.59
45467;BME280;31212;49.734;8.490;2023-01-08T01:52:59;99857.59;;;6.83;93.39
45467;BME280;31212;49.734;8.490;2023-01-08T01:55:26;99867.94;;;6.83;94.49
45467;BME280;31212;49.734;8.490;2023-01-08T01:57:58;99865.34;;;6.83;96.00
45467;BME280;31212;49.734;8.490;2023-01-08T02:00:27;99855.84;;;6.77;96.40
45467;BME280;31212;49.734;8.490;2023-01-08T02:02:54;99861.81;;;6.74;97.06
45467;BME280;31212;49.734;8.490;2023-01-08T02:05:22;99867.00;;;6.76;98.73
45467;BME280;31212;49.734;8.490;2023-01-08T02:07:57;99860.94;;;6.69;99.69
45467;BME280;31212;49.734;8.490;2023-01-08T02:10:31;99850.56;;;6.63;100.00
45467;BME280;31212;49.734;8.490;2023-01-08T02:13:04;99855.66;;;6.59;100.00
45467;BME280;31212;49.734;8.490;2023-01-08T02:15:37;99849.72;;;6.64;100.00
45467;BME280;31212;49.734;8.490;2023-01-08T02:18:11;99852.31;;;6.67;100.00
45467;BME280;31212;49.734;8.490;2023-01-08T02:20:43;99843.75;;;6.70;100.00
45467;BME280;31212;49.734;8.490;2023-01-08T02:23:19;99831.66;;;6.66;100.00
45467;BME280;31212;49.734;8.490;2023-01-08T02:26:06;99847.16;;;6.69;100.00
45467;BME280;31212;49.734;8.490;2023-01-08T02:28:40;99837.69;;;6.66;100.00
45467;BME280;31212;49.734;8.490;2023-01-08T02:31:08;99847.91;;;6.57;100.00
45467;BME280;31212;49.734;8.490;2023-01-08T02:33:35;99847.03;;;6.56;100.00
45467;BME280;31212;49.734;8.490;2023-01-08T02:36:23;99840.16;;;6.55;100.00
45467;BME280;31212;49.734;8.490;2023-01-08T02:39:00;99847.03;;;6.55;100.00
45467;BME280;31212;49.734;8.490;2023-01-08T02:41:38;99842.72;;;6.55;100.00
45467;BME280;31212;49.734;8.490;2023-01-08T02:44:12;99847.06;;;6.58;100.00
45467;BME280;31212;49.734;8.490;2023-01-08T02:46:43;99841.81;;;6.50;100.00
45467;BME280;31212;49.734;8.490;2023-01-08T02:49:12;99834.97;;;6.54;100.00
45467;BME280;31212;49.734;8.490;2023-01-08T02:51:43;99829.84;;;6.57;100.00
45467;BME280;31212;49.734;8.490;2023-01-08T02:54:15;99829.84;;;6.55;100.00
45467;BME280;31212;49.734;8.490;2023-01-08T02:56:49;99824.66;;;6.52;100.00
45467;BME280;31212;49.734;8.490;2023-01-08T02:59:18;99817.75;;;6.51;100.00
45467;BME280;31212;49.734;8.490;2023-01-08T03:01:46;99818.66;;;6.55;100.00
45467;BME280;31212;49.734;8.490;2023-01-08T03:04:16;99804.03;;;6.54;100.00
45467;BME280;31212;49.734;8.490;2023-01-08T03:06:44;99801.44;;;6.51;100.00
45467;BME280;31212;49.734;8.490;2023-01-08T03:09:11;99793.66;;;6.48;100.00
45467;BME280;31212;49.734;8.490;2023-01-08T03:11:41;99794.53;;;6.50;100.00
45467;BME280;31212;49.734;8.490;2023-01-08T03:14:14;99797.13;;;6.51;100.00
45467;BME280;31212;49.734;8.490;2023-01-08T03:16:46;99798.00;;;6.52;100.00
45467;BME280;31212;49.734;8.490;2023-01-08T03:19:19;99790.28;;;6.52;100.00
45467;BME280;31212;49.734;8.490;2023-01-08T03:21:48;99788.53;;;6.49;100.00
45467;BME280;31212;49.734;8.490;2023-01-08T03:24:19;99788.53;;;6.51;100.00
45467;BME280;31212;49.734;8.490;2023-01-08T03:26:47;99787.66;;;6.49;100.00
45467;BME280;31212;49.734;8.490;2023-01-08T03:29:18;99772.19;;;6.49;100.00
45467;BME280;31212;49.734;8.490;2023-01-08T03:31:46;99767.03;;;6.50;100.00
45467;BME280;31212;49.734;8.490;2023-01-08T03:34:13;99764.44;;;6.49;100.00
45467;BME280;31212;49.734;8.490;2023-01-08T03:36:44;99766.16;;;6.48;100.00
45467;BME280;31212;49.734;8.490;2023-01-08T03:39:15;99751.53;;;6.44;100.00
45467;BME280;31212;49.734;8.490;2023-01-08T03:41:45;99748.03;;;6.42;100.00
45467;BME280;31212;49.734;8.490;2023-01-08T03:44:13;99740.31;;;6.40;100.00
45467;BME280;31212;49.734;8.490;2023-01-08T03:46:46;99747.19;;;6.38;100.00
45467;BME280;31212;49.734;8.490;2023-01-08T03:49:14;99745.47;;;6.44;100.00
45467;BME280;31212;49.734;8.490;2023-01-08T03:51:43;99744.69;;;6.49;100.00
45467;BME280;31212;49.734;8.490;2023-01-08T03:54:13;99750.72;;;6.51;100.00
45467;BME280;31212;49.734;8.490;2023-01-08T03:56:40;99754.19;;;6.55;100.00
45467;BME280;31212;49.734;8.490;2023-01-08T03:59:06;99743.00;;;6.54;100.00
45467;BME280;31212;49.734;8.490;2023-01-08T04:01:33;99749.03;;;6.52;100.00
45467;BME280;31212;49.734;8.490;2023-01-08T04:04:01;99746.44;;;6.52;100.00
45467;BME280;31212;49.734;8.490;2023-01-08T04:06:27;99730.97;;;6.52;100.00
45467;BME280;31212;49.734;8.490;2023-01-08T04:08:54;99734.41;;;6.54;100.00
45467;BME280;31212;49.734;8.490;2023-01-08T04:11:21;99722.34;;;6.51;100.00
45467;BME280;31212;49.734;8.490;2023-01-08T04:13:47;99717.19;;;6.50;100.00
45467;BME280;31212;49.734;8.490;2023-01-08T04:16:14;99729.25;;;6.52;100.00
45467;BME280;31212;49.734;8.490;2023-01-08T04:18:41;99719.78;;;6.54;100.00
45467;BME280;31212;49.734;8.490;2023-01-08T04:21:09;99720.63;;;6.50;100.00
45467;BME280;31212;49.734;8.490;2023-01-08T04:23:35;99721.50;;;6.49;100.00
45467;BME280;31212;49.734;8.490;2023-01-08T04:26:03;99716.34;;;6.49;100.00
45467;BME280;31212;49.734;8.490;2023-01-08T04:28:30;99714.63;;;6.51;100.00
45467;BME280;31212;49.734;8.490;2023-01-08T04:30:56;99712.91;;;6.52;100.00
45467;BME280;31212;49.734;8.490;2023-01-08T04:33:23;99722.34;;;6.53;100.00
45467;BME280;31212;49.734;8.490;2023-01-08T04:35:50;99714.63;;;6.51;100.00
45467;BME280;31212;49.734;8.490;2023-01-08T04:38:18;99711.19;;;6.51;100.00
45467;BME280;31212;49.734;8.490;2023-01-08T04:40:45;99712.84;;;6.44;100.00
45467;BME280;31212;49.734;8.490;2023-01-08T04:43:11;99712.03;;;6.50;100.00
45467;BME280;31212;49.734;8.490;2023-01-08T04:45:37;99712.88;;;6.49;100.00
45467;BME280;31212;49.734;8.490;2023-01-08T04:48:04;99709.38;;;6.44;100.00
45467;BME280;31212;49.734;8.490;2023-01-08T04:50:31;99716.28;;;6.45;100.00
45467;BME280;31212;49.734;8.490;2023-01-08T04:52:58;99712.00;;;6.45;100.00
45467;BME280;31212;49.734;8.490;2023-01-08T04:55:26;99712.81;;;6.41;100.00
45467;BME280;31212;49.734;8.490;2023-01-08T04:57:52;99719.75;;;6.45;100.00
45467;BME280;31212;49.734;8.490;2023-01-08T05:00:19;99713.69;;;6.42;100.00
45467;BME280;31212;49.734;8.490;2023-01-08T05:02:45;99701.69;;;6.45;100.00
45467;BME280;31212;49.734;8.490;2023-01-08T05:05:11;99701.72;;;6.54;100.00
45467;BME280;31212;49.734;8.490;2023-01-08T05:07:38;99699.13;;;6.50;100.00
45467;BME280;31212;49.734;8.490;2023-01-08T05:10:06;99700.91;;;6.57;100.00
45467;BME280;31212;49.734;8.490;2023-01-08T05:12:34;99706.06;;;6.59;100.00
45467;BME280;31212;49.734;8.490;2023-01-08T05:15:00;99706.94;;;6.57;100.00
45467;BME280;31212;49.734;8.490;2023-01-08T05:17:27;99701.78;;;6.57;100.00
45467;BME280;31212;49.734;8.490;2023-01-08T05:19:53;99710.38;;;6.60;100.00
45467;BME280;31212;49.734;8.490;2023-01-08T05:22:20;99710.38;;;6.58;100.00
45467;BME280;31212;49.734;8.490;2023-01-08T05:24:46;99703.53;;;6.60;100.00
45467;BME280;31212;49.734;8.490;2023-01-08T05:27:13;99713.00;;;6.63;100.00
45467;BME280;31212;49.734;8.490;2023-01-08T05:29:40;99701.78;;;6.61;100.00
45467;BME280;31212;49.734;8.490;2023-01-08T05:32:13;99714.75;;;6.67;100.00
45467;BME280;31212;49.734;8.490;2023-01-08T05:34:40;99708.69;;;6.65;100.00
45467;BME280;31212;49.734;8.490;2023-01-08T05:37:06;99708.72;;;6.66;100.00
45467;BME280;31212;49.734;8.490;2023-01-08T05:39:33;99701.81;;;6.64;100.00
45467;BME280;31212;49.734;8.490;2023-01-08T05:41:59;99697.56;;;6.69;100.00
45467;BME280;31212;49.734;8.490;2023-01-08T05:44:25;99702.72;;;6.69;100.00
45467;BME280;31212;49.734;8.490;2023-01-08T05:46:53;99694.97;;;6.67;100.00
45467;BME280;31212;49.734;8.490;2023-01-08T05:49:21;99699.28;;;6.68;100.00
45467;BME280;31212;49.734;8.490;2023-01-08T05:51:48;99695.88;;;6.72;100.00
45467;BME280;31212;49.734;8.490;2023-01-08T05:54:15;99694.97;;;6.70;100.00
45467;BME280;31212;49.734;8.490;2023-01-08T05:56:41;99700.19;;;6.73;100.00
45467;BME280;31212;49.734;8.490;2023-01-08T05:59:09;99696.72;;;6.74;100.00
45467;BME280;31212;49.734;8.490;2023-01-08T06:01:36;99700.13;;;6.67;100.00
45467;BME280;31212;49.734;8.490;2023-01-08T06:04:04;99702.69;;;6.63;100.00
45467;BME280;31212;49.734;8.490;2023-01-08T06:06:30;99704.38;;;6.61;100.00
45467;BME280;31212;49.734;8.490;2023-01-08T06:08:57;99703.53;;;6.60;100.00
45467;BME280;31212;49.734;8.490;2023-01-08T06:11:23;99703.47;;;6.57;100.00
45467;BME280;31212;49.734;8.490;2023-01-08T06:13:50;99701.78;;;6.57;100.00
45467;BME280;31212;49.734;8.490;2023-01-08T06:16:16;99703.50;;;6.59;100.00
45467;BME280;31212;49.734;8.490;2023-01-08T06:18:45;99703.50;;;6.59;100.00
45467;BME280;31212;49.734;8.490;2023-01-08T06:21:13;99696.63;;;6.57;100.00
45467;BME280;31212;49.734;8.490;2023-01-08T06:23:40;99702.63;;;6.60;100.00
45467;BME280;31212;49.734;8.490;2023-01-08T06:26:06;99708.69;;;6.60;100.00
45467;BME280;31212;49.734;8.490;2023-01-08T06:28:33;99701.78;;;6.57;100.00
45467;BME280;31212;49.734;8.490;2023-01-08T06:30:59;99706.97;;;6.64;100.00
45467;BME280;31212;49.734;8.490;2023-01-08T06:33:26;99713.03;;;6.66;100.00
45467;BME280;31212;49.734;8.490;2023-01-08T06:35:53;99709.53;;;6.62;100.00
45467;BME280;31212;49.734;8.490;2023-01-08T06:38:21;99705.28;;;6.63;100.00
45467;BME280;31212;49.734;8.490;2023-01-08T06:40:47;99708.66;;;6.59;100.00
45467;BME280;31212;49.734;8.490;2023-01-08T06:43:14;99716.44;;;6.65;100.00
45467;BME280;31212;49.734;8.490;2023-01-08T06:45:41;99715.59;;;6.64;100.00
45467;BME280;31212;49.734;8.490;2023-01-08T06:48:08;99720.69;;;6.60;100.00
45467;BME280;31212;49.734;8.490;2023-01-08T06:50:35;99727.59;;;6.62;100.00
45467;BME280;31212;49.734;8.490;2023-01-08T06:53:01;99730.16;;;6.57;100.00
45467;BME280;31212;49.734;8.490;2023-01-08T06:55:29;99720.66;;;6.53;100.00
45467;BME280;31212;49.734;8.490;2023-01-08T06:57:56;99729.25;;;6.54;100.00
45467;BME280;31212;49.734;8.490;2023-01-08T07:00:24;99725.81;;;6.53;100.00
45467;BME280;31212;49.734;8.490;2023-01-08T07:02:52;99727.50;;;6.53;100.00
45467;BME280;31212;49.734;8.490;2023-01-08T07:05:18;99730.16;;;6.56;100.00
45467;BME280;31212;49.734;8.490;2023-01-08T07:07:45;99730.97;;;6.55;100.00
45467;BME280;31212;49.734;8.490;2023-01-08T07:10:11;99725.81;;;6.53;100.00
45467;BME280;31212;49.734;8.490;2023-01-08T07:12:39;99724.97;;;6.56;100.00
45467;BME280;31212;49.734;8.490;2023-01-08T07:15:07;99722.41;;;6.56;100.00
45467;BME280;31212;49.734;8.490;2023-01-08T07:17:33;99723.25;;;6.53;100.00
45467;BME280;31212;49.734;8.490;2023-01-08T07:20:00;99725.84;;;6.60;100.00
45467;BME280;31212;49.734;8.490;2023-01-08T07:22:27;99727.56;;;6.56;100.00
45467;BME280;31212;49.734;8.490;2023-01-08T07:24:53;99732.75;;;6.62;100.00
45467;BME280;31212;49.734;8.490;2023-01-08T07:27:20;99734.47;;;6.60;100.00
45467;BME280;31212;49.734;8.490;2023-01-08T07:29:48;99738.78;;;6.63;100.00
45467;BME280;31212;49.734;8.490;2023-01-08T07:32:14;99740.50;;;6.65;100.00
45467;BME280;31212;49.734;8.490;2023-01-08T07:34:40;99732.75;;;6.64;100.00
45467;BME280;31212;49.734;8.490;2023-01-08T07:37:07;99730.19;;;6.64;100.00
45467;BME280;31212;49.734;8.490;2023-01-08T07:39:33;99740.56;;;6.68;100.00
45467;BME280;31212;49.734;8.490;2023-01-08T07:42:00;99738.81;;;6.67;100.00
45467;BME280;31212;49.734;8.490;2023-01-08T07:44:26;99739.66;;;6.65;100.00
45467;BME280;31212;49.734;8.490;2023-01-08T07:46:54;99734.56;;;6.69;100.00
45467;BME280;31212;49.734;8.490;2023-01-08T07:49:20;99736.25;;;6.72;100.00
45467;BME280;31212;49.734;8.490;2023-01-08T07:51:47;99740.56;;;6.71;100.00
45467;BME280;31212;49.734;8.490;2023-01-08T07:54:14;99744.91;;;6.79;100.00
45467;BME280;31212;49.734;8.490;2023-01-08T07:56:40;99737.22;;;6.82;100.00
45467;BME280;31212;49.734;8.490;2023-01-08T07:59:07;99742.41;;;6.86;100.00
45467;BME280;31212;49.734;8.490;2023-01-08T08:01:33;99738.94;;;6.83;100.00
45467;BME280;31212;49.734;8.490;2023-01-08T08:04:01;99740.66;;;6.82;100.00
45467;BME280;31212;49.734;8.490;2023-01-08T08:06:27;99738.16;;;6.92;100.00
45467;BME280;31212;49.734;8.490;2023-01-08T08:08:55;99734.66;;;6.85;100.00
45467;BME280;31212;49.734;8.490;2023-01-08T08:11:24;99733.81;;;6.89;100.00
45467;BME280;31212;49.734;8.490;2023-01-08T08:13:50;99735.50;;;6.85;100.00
45467;BME280;31212;49.734;8.490;2023-01-08T08:16:16;99738.97;;;6.86;100.00
45467;BME280;31212;49.734;8.490;2023-01-08T08:18:43;99735.56;;;6.88;100.00
45467;BME280;31212;49.734;8.490;2023-01-08T08:21:11;99732.13;;;6.93;100.00
45467;BME280;31212;49.734;8.490;2023-01-08T08:23:37;99728.66;;;6.90;100.00
45467;BME280;31212;49.734;8.490;2023-01-08T08:26:04;99726.06;;;6.87;100.00
45467;BME280;31212;49.734;8.490;2023-01-08T08:28:32;99718.34;;;6.87;100.00
45467;BME280;31212;49.734;8.490;2023-01-08T08:30:58;99728.66;;;6.90;100.00
45467;BME280;31212;49.734;8.490;2023-01-08T08:33:25;99732.16;;;6.94;100.00
45467;BME280;31212;49.734;8.490;2023-01-08T08:35:51;99726.09;;;6.90;100.00
45467;BME280;31212;49.734;8.490;2023-01-08T08:38:19;99726.97;;;6.93;100.00
45467;BME280;31212;49.734;8.490;2023-01-08T08:40:45;99721.78;;;6.89;100.00
45467;BME280;31212;49.734;8.490;2023-01-08T08:43:13;99722.72;;;6.98;100.00
45467;BME280;31212;49.734;8.490;2023-01-08T08:45:39;99718.41;;;6.97;100.00
45467;BME280;31212;49.734;8.490;2023-01-08T08:48:06;99720.97;;;6.95;100.00
45467;BME280;31212;49.734;8.490;2023-01-08T08:50:33;99726.16;;;6.97;100.00
45467;BME280;31212;49.734;8.490;2023-01-08T08:53:01;99723.53;;;6.94;100.00
45467;BME280;31212;49.734;8.490;2023-01-08T08:55:31;99720.09;;;6.95;100.00
45467;BME280;31212;49.734;8.490;2023-01-08T08:58:02;99717.50;;;6.95;100.00
45467;BME280;31212;49.734;8.490;2023-01-08T09:00:29;99720.13;;;6.98;100.00
45467;BME280;31212;49.734;8.490;2023-01-08T09:02:56;99723.56;;;6.97;100.00
45467;BME280;31212;49.734;8.490;2023-01-08T09:05:22;99719.25;;;7.00;100.00
45467;BME280;31212;49.734;8.490;2023-01-08T09:07:49;99712.34;;;6.96;100.00
45467;BME280;31212;49.734;8.490;2023-01-08T09:10:16;99717.56;;;7.02;100.00
45467;BME280;31212;49.734;8.490;2023-01-08T09:15:18;99715.00;;;7.01;100.00
45467;BME280;31212;49.734;8.490;2023-01-08T09:17:44;99727.91;;;7.02;100.00
45467;BME280;31212;49.734;8.490;2023-01-08T09:20:11;99716.75;;;7.08;100.00
45467;BME280;31212;49.734;8.490;2023-01-08T09:22:38;99724.47;;;7.08;100.00
45467;BME280;31212;49.734;8.490;2023-01-08T09:25:05;99726.22;;;7.11;100.00
45467;BME280;31212;49.734;8.490;2023-01-08T09:27:31;99721.97;;;7.16;100.00
45467;BME280;31212;49.734;8.490;2023-01-08T09:29:58;99729.72;;;7.19;100.00
45467;BME280;31212;49.734;8.490;2023-01-08T09:32:26;99734.88;;;7.16;100.00
45467;BME280;31212;49.734;8.490;2023-01-08T09:34:53;99743.50;;;7.19;100.00
45467;BME280;31212;49.734;8.490;2023-01-08T09:37:19;99726.28;;;7.23;100.00
45467;BME280;31212;49.734;8.490;2023-01-08T09:39:47;99721.13;;;7.24;100.00
45467;BME280;31212;49.734;8.490;2023-01-08T09:42:14;99731.50;;;7.32;100.00
45467;BME280;31212;49.734;8.490;2023-01-08T09:44:43;99728.94;;;7.34;100.00
45467;BME280;31212;49.734;8.490;2023-01-08T09:47:21;99725.50;;;7.35;100.00
45467;BME280;31212;49.734;8.490;2023-01-08T09:49:53;99726.41;;;7.41;100.00
45467;BME280;31212;49.734;8.490;2023-01-08T09:52:20;99722.13;;;7.48;100.00
45467;BME280;31212;49.734;8.490;2023-01-08T09:54:47;99722.97;;;7.49;100.00
45467;BME280;31212;49.734;8.490;2023-01-08T09:57:16;99721.28;;;7.52;100.00
45467;BME280;31212;49.734;8.490;2023-01-08T09:59:43;99714.41;;;7.57;100.00
45467;BME280;31212;49.734;8.490;2023-01-08T10:02:14;99709.25;;;7.54;100.00
45467;BME280;31212;49.734;8.490;2023-01-08T10:04:42;99702.34;;;7.55;100.00
45467;BME280;31212;49.734;8.490;2023-01-08T10:07:16;99701.50;;;7.56;100.00
45467;BME280;31212;49.734;8.490;2023-01-08T10:09:46;99705.78;;;7.57;100.00
45467;BME280;31212;49.734;8.490;2023-01-08T10:12:14;99700.66;;;7.60;100.00
45467;BME280;31212;49.734;8.490;2023-01-08T10:14:42;99701.50;;;7.64;100.00
45467;BME280;31212;49.734;8.490;2023-01-08T10:17:22;99698.94;;;7.62;100.00
45467;BME280;31212;49.734;8.490;2023-01-08T10:19:51;99690.31;;;7.58;100.00
45467;BME280;31212;49.734;8.490;2023-01-08T10:22:21;99692.03;;;7.61;100.00
45467;BME280;31212;49.734;8.490;2023-01-08T10:24:49;99696.38;;;7.67;100.00
45467;BME280;31212;49.734;8.490;2023-01-08T10:27:17;99692.94;;;7.71;100.00
45467;BME280;31212;49.734;8.490;2023-01-08T10:29:44;99694.69;;;7.73;100.00
45467;BME280;31212;49.734;8.490;2023-01-08T10:32:14;99693.78;;;7.73;100.00
45467;BME280;31212;49.734;8.490;2023-01-08T10:34:46;99688.66;;;7.85;100.00
45467;BME280;31212;49.734;8.490;2023-01-08T10:37:22;99684.34;;;7.81;100.00
45467;BME280;31212;49.734;8.490;2023-01-08T10:39:51;99678.34;;;7.96;100.00
45467;BME280;31212;49.734;8.490;2023-01-08T10:42:19;99671.50;;;8.04;100.00
45467;BME280;31212;49.734;8.490;2023-01-08T10:44:57;99668.91;;;8.07;100.00
45467;BME280;31212;49.734;8.490;2023-01-08T10:47:26;99668.03;;;8.12;100.00
45467;BME280;31212;49.734;8.490;2023-01-08T10:49:54;99649.09;;;8.22;100.00
45467;BME280;31212;49.734;8.490;2023-01-08T10:52:28;99655.13;;;8.32;100.00
45467;BME280;31212;49.734;8.490;2023-01-08T10:54:56;99649.97;;;8.32;100.00
45467;BME280;31212;49.734;8.490;2023-01-08T10:57:25;99639.63;;;8.49;100.00
45467;BME280;31212;49.734;8.490;2023-01-08T10:59:52;99643.91;;;8.81;100.00
45467;BME280;31212;49.734;8.490;2023-01-08T11:02:32;99641.22;;;9.12;100.00
45467;BME280;31212;49.734;8.490;2023-01-08T11:05:00;99625.53;;;9.49;100.00
45467;BME280;31212;49.734;8.490;2023-01-08T11:07:28;99612.53;;;9.58;100.00
45467;BME280;31212;49.734;8.490;2023-01-08T11:09:56;99596.16;;;9.54;100.00
45467;BME280;31212;49.734;8.490;2023-01-08T11:12:30;99596.78;;;9.92;100.00
45467;BME280;31212;49.734;8.490;2023-01-08T11:14:59;99594.94;;;10.05;100.00
45467;BME280;31212;49.734;8.490;2023-01-08T11:17:26;99587.97;;;10.12;100.00
45467;BME280;31212;49.734;8.490;2023-01-08T11:19:53;99574.16;;;10.06;100.00
45467;BME280;31212;49.734;8.490;2023-01-08T11:22:21;99555.00;;;10.26;99.17
45467;BME280;31212;49.734;8.490;2023-01-08T11:24:51;99548.97;;;10.22;98.53
45467;BME280;31212;49.734;8.490;2023-01-08T11:27:24;99533.50;;;10.10;97.21
45467;BME280;31212;49.734;8.490;2023-01-08T11:29:58;99528.50;;;9.90;96.27
45467;BME280;31212;49.734;8.490;2023-01-08T11:32:39;99508.69;;;9.84;96.44
45467;BME280;31212;49.734;8.490;2023-01-08T11:35:11;99500.22;;;9.60;96.58
45467;BME280;31212;49.734;8.490;2023-01-08T11:37:40;99508.94;;;9.52;96.67
45467;BME280;31212;49.734;8.490;2023-01-08T11:40:15;99507.19;;;9.52;97.07
45467;BME280;31212;49.734;8.490;2023-01-08T11:42:54;99494.22;;;9.52;97.37
45467;BME280;31212;49.734;8.490;2023-01-08T11:45:29;99489.75;;;9.74;96.99
45467;BME280;31212;49.734;8.490;2023-01-08T11:48:23;99470.47;;;10.03;95.69
45467;BME280;31212;49.734;8.490;2023-01-08T11:51:05;99453.16;;;10.04;94.90
45467;BME280;31212;49.734;8.490;2023-01-08T11:53:39;99448.88;;;10.03;94.74
45467;BME280;31212;49.734;8.490;2023-01-08T11:56:18;99441.28;;;9.83;94.64
45467;BME280;31212;49.734;8.490;2023-01-08T11:58:58;99441.38;;;9.70;94.66
45467;BME280;31212;49.734;8.490;2023-01-08T12:01:38;99431.19;;;9.52;94.21
45467;BME280;31212;49.734;8.490;2023-01-08T12:04:22;99440.69;;;9.51;94.77
45467;BME280;31212;49.734;8.490;2023-01-08T12:06:56;99438.06;;;9.56;95.01
45467;BME280;31212;49.734;8.490;2023-01-08T12:09:34;99431.22;;;9.49;94.90
45467;BME280;31212;49.734;8.490;2023-01-08T12:12:16;99436.50;;;9.39;95.34
45467;BME280;31212;49.734;8.490;2023-01-08T12:14:53;99437.34;;;9.38;95.63
45467;BME280;31212;49.734;8.490;2023-01-08T12:17:41;99431.38;;;9.29;95.68
45467;BME280;31212;49.734;8.490;2023-01-08T12:20:22;99429.63;;;9.31;95.70
45467;BME280;31212;49.734;8.490;2023-01-08T12:22:59;99423.53;;;9.39;95.48
45467;BME280;31212;49.734;8.490;2023-01-08T12:25:39;99418.34;;;9.41;95.43
45467;BME280;31212;49.734;8.490;2023-01-08T12:28:31;99418.34;;;9.38;95.41
45467;BME280;31212;49.734;8.490;2023-01-08T12:33:53;99420.91;;;9.42;95.06
45467;BME280;31212;49.734;8.490;2023-01-08T12:36:26;99425.28;;;9.31;95.77
45467;BME280;31212;49.734;8.490;2023-01-08T12:38:57;99419.28;;;9.29;95.22
45467;BME280;31212;49.734;8.490;2023-01-08T12:41:27;99417.50;;;9.36;96.12
45467;BME280;31212;49.734;8.490;2023-01-08T12:44:00;99418.38;;;9.35;96.39
45467;BME280;31212;49.734;8.490;2023-01-08T12:46:30;99414.06;;;9.34;96.52
45467;BME280;31212;49.734;8.490;2023-01-08T12:48:58;99423.66;;;9.22;96.77
45467;BME280;31212;49.734;8.490;2023-01-08T12:51:30;99422.00;;;9.12;97.12
45467;BME280;31212;49.734;8.490;2023-01-08T12:54:06;99424.59;;;9.11;97.03
45467;BME280;31212;49.734;8.490;2023-01-08T12:56:42;99404.78;;;9.05;96.30
45467;BME280;31212;49.734;8.490;2023-01-08T12:59:22;99402.22;;;9.03;96.02
45467;BME280;31212;49.734;8.490;2023-01-08T13:01:56;99393.53;;;9.11;95.95
45467;BME280;31212;49.734;8.490;2023-01-08T13:04:27;99383.19;;;9.09;95.61
45467;BME280;31212;49.734;8.490;2023-01-08T13:06:59;99377.09;;;9.18;95.17
45467;BME280;31212;49.734;8.490;2023-01-08T13:09:27;99372.75;;;9.20;95.05
45467;BME280;31212;49.734;8.490;2023-01-08T13:11:56;99378.72;;;9.26;94.49
45467;BME280;31212;49.734;8.490;2023-01-08T13:14:25;99383.94;;;9.23;94.49
45467;BME280;31212;49.734;8.490;2023-01-08T13:17:03;99370.06;;;9.31;94.12
45467;BME280;31212;49.734;8.490;2023-01-08T13:19:36;99376.19;;;9.22;94.07